Time,TemperatureF,DewpointF,PressureIn,WindDirection,WindDirectionDegrees,WindSpeedMPH,WindSpeedGustMPH,Humidity,HourlyPrecipIn,Conditions,Clouds,dailyrainin,SoftwareType,DateUTC
2013-02-12 00:00:00,53.5,53.0,30.06,South,169,0.0,1.0,98,0.00,,---,0.00,VWS V14.01,2013-02-12 05:00:00,
2013-02-12 00:05:00,53.3,52.8,30.06,South,169,0.0,1.0,98,0.00,,---,0.00,VWS V14.01,2013-02-12 05:05:00,
2013-02-12 00:10:00,53.3,52.8,30.06,SW,219,0.0,1.0,98,0.00,,---,0.00,VWS V14.01,2013-02-12 05:10:00,
2013-02-12 00:15:00,53.2,52.7,30.06,SW,219,0.0,0.0,98,0.00,,---,0.00,VWS V14.01,2013-02-12 05:15:00,
2013-02-12 00:20:00,53.2,52.7,30.06,South,191,0.0,0.0,98,0.00,,---,0.00,VWS V14.01,2013-02-12 05:20:00,
2013-02-12 00:25:00,53.1,52.5,30.06,South,191,0.0,0.0,98,0.00,,---,0.00,VWS V14.01,2013-02-12 05:25:00,
2013-02-12 00:30:00,53.1,52.5,30.06,South,171,0.0,1.0,98,0.00,,---,0.00,VWS V14.01,2013-02-12 05:30:00,
2013-02-12 00:35:00,53.1,52.5,30.06,South,183,0.0,1.0,98,0.00,,---,0.00,VWS V14.01,2013-02-12 05:35:00,
2013-02-12 00:40:00,53.1,52.5,30.06,NNW,332,0.0,2.0,98,0.00,,---,0.00,VWS V14.01,2013-02-12 05:40:00,
2013-02-12 00:45:00,53.1,52.5,30.07,NNW,333,0.0,1.0,98,0.00,,---,0.00,VWS V14.01,2013-02-12 05:45:00,
2013-02-12 00:50:00,52.9,52.3,30.07,West,265,0.0,3.0,98,0.00,,---,0.00,VWS V14.01,2013-02-12 05:50:00,
2013-02-12 00:55:00,52.9,52.3,30.07,West,277,0.0,1.0,98,0.00,,---,0.00,VWS V14.01,2013-02-12 05:55:00,
2013-02-12 01:00:00,52.9,52.3,30.08,South,191,0.0,2.0,98,0.00,,---,0.00,VWS V14.01,2013-02-12 06:00:00,
2013-02-12 01:05:00,52.8,52.2,30.08,SW,236,0.0,0.0,98,0.00,,---,0.00,VWS V14.01,2013-02-12 06:05:00,
2013-02-12 01:10:00,52.8,52.2,30.08,SSW,192,0.0,3.0,98,0.00,,---,0.00,VWS V14.01,2013-02-12 06:10:00,
2013-02-12 01:15:00,52.6,52.0,30.08,WSW,250,0.0,1.0,98,0.00,,---,0.00,VWS V14.01,2013-02-12 06:15:00,
2013-02-12 01:20:00,52.6,52.0,30.08,West,263,1.0,2.0,98,0.00,,---,0.00,VWS V14.01,2013-02-12 06:20:00,
2013-02-12 01:25:00,52.6,52.0,30.08,SSE,155,0.0,1.0,98,0.00,,---,0.00,VWS V14.01,2013-02-12 06:25:00,
2013-02-12 01:30:00,52.6,52.0,30.08,SSE,159,0.0,1.0,98,0.00,,---,0.00,VWS V14.01,2013-02-12 06:30:00,
2013-02-12 01:35:00,52.5,52.0,30.08,South,175,0.0,1.0,98,0.00,,---,0.00,VWS V14.01,2013-02-12 06:35:00,
2013-02-12 01:40:00,52.5,52.0,30.08,South,175,0.0,0.0,98,0.00,,---,0.00,VWS V14.01,2013-02-12 06:40:00,
2013-02-12 01:45:00,52.3,51.8,30.08,West,274,2.0,2.0,98,0.00,,---,0.00,VWS V14.01,2013-02-12 06:45:00,
2013-02-12 01:50:00,52.3,51.8,30.08,WSW,240,0.0,0.0,98,0.00,,---,0.00,VWS V14.01,2013-02-12 06:50:00,
2013-02-12 01:55:00,52.2,51.7,30.08,WSW,240,0.0,0.0,98,0.00,,---,0.00,VWS V14.01,2013-02-12 06:55:00,
2013-02-12 02:00:00,51.9,51.4,30.07,SW,215,0.0,1.0,98,0.00,,---,0.00,VWS V14.01,2013-02-12 07:00:00,
2013-02-12 02:05:00,51.9,51.4,30.07,SW,215,0.0,0.0,98,0.00,,---,0.00,VWS V14.01,2013-02-12 07:05:00,
2013-02-12 02:10:00,51.7,51.2,30.07,SW,215,0.0,0.0,98,0.00,,---,0.00,VWS V14.01,2013-02-12 07:10:00,
2013-02-12 02:15:00,51.6,51.1,30.07,SW,215,0.0,0.0,98,0.00,,---,0.00,VWS V14.01,2013-02-12 07:15:00,
2013-02-12 02:20:00,51.3,50.8,30.07,SW,215,0.0,0.0,98,0.00,,---,0.00,VWS V14.01,2013-02-12 07:20:00,
2013-02-12 02:25:00,51.1,50.6,30.07,WSW,237,0.0,0.0,98,0.00,,---,0.00,VWS V14.01,2013-02-12 07:25:00,
2013-02-12 02:30:00,51.0,50.5,30.08,SW,234,0.0,0.0,98,0.00,,---,0.00,VWS V14.01,2013-02-12 07:30:00,
2013-02-12 02:35:00,50.8,50.3,30.08,SW,234,0.0,0.0,98,0.00,,---,0.00,VWS V14.01,2013-02-12 07:35:00,
2013-02-12 02:40:00,50.7,50.2,30.08,SW,234,0.0,0.0,98,0.00,,---,0.00,VWS V14.01,2013-02-12 07:40:00,
2013-02-12 02:45:00,50.4,49.9,30.07,SW,234,0.0,0.0,98,0.00,,---,0.00,VWS V14.01,2013-02-12 07:45:00,
2013-02-12 02:50:00,50.2,49.7,30.07,SW,234,0.0,0.0,98,0.00,,---,0.00,VWS V14.01,2013-02-12 07:50:00,
2013-02-12 02:55:00,50.1,49.6,30.07,SW,234,0.0,0.0,98,0.00,,---,0.00,VWS V14.01,2013-02-12 07:55:00,
2013-02-12 03:00:00,49.9,49.4,30.07,SW,234,0.0,0.0,98,0.00,,---,0.00,VWS V14.01,2013-02-12 08:00:00,
2013-02-12 03:05:00,49.6,49.1,30.07,SW,234,0.0,0.0,98,0.00,,---,0.00,VWS V14.01,2013-02-12 08:05:00,
2013-02-12 03:10:00,49.4,48.9,30.07,SW,234,0.0,0.0,98,0.00,,---,0.00,VWS V14.01,2013-02-12 08:10:00,
2013-02-12 03:15:00,49.2,48.7,30.08,SW,234,0.0,0.0,98,0.00,,---,0.00,VWS V14.01,2013-02-12 08:15:00,
2013-02-12 03:20:00,49.1,48.6,30.08,SW,234,0.0,0.0,98,0.00,,---,0.00,VWS V14.01,2013-02-12 08:20:00,
2013-02-12 03:25:00,48.9,48.4,30.08,SW,234,0.0,0.0,98,0.00,,---,0.00,VWS V14.01,2013-02-12 08:25:00,
2013-02-12 03:30:00,48.6,48.1,30.09,SW,234,0.0,0.0,98,0.00,,---,0.00,VWS V14.01,2013-02-12 08:30:00,
2013-02-12 03:35:00,48.3,47.8,30.09,SW,234,0.0,0.0,98,0.00,,---,0.00,VWS V14.01,2013-02-12 08:35:00,
2013-02-12 03:40:00,48.2,47.7,30.09,SW,234,0.0,0.0,98,0.00,,---,0.00,VWS V14.01,2013-02-12 08:40:00,
2013-02-12 03:45:00,47.9,47.4,30.08,SW,234,0.0,0.0,98,0.00,,---,0.00,VWS V14.01,2013-02-12 08:45:00,
2013-02-12 03:50:00,47.7,47.2,30.08,SW,234,0.0,0.0,98,0.00,,---,0.00,VWS V14.01,2013-02-12 08:50:00,
2013-02-12 03:55:00,47.6,47.1,30.08,SW,234,0.0,0.0,98,0.00,,---,0.00,VWS V14.01,2013-02-12 08:55:00,
2013-02-12 04:00:00,47.3,46.8,30.07,SW,234,0.0,0.0,98,0.00,,---,0.00,VWS V14.01,2013-02-12 09:00:00,
2013-02-12 04:05:00,47.0,46.5,30.07,SW,234,0.0,0.0,98,0.00,,---,0.00,VWS V14.01,2013-02-12 09:05:00,
2013-02-12 04:10:00,46.7,46.2,30.07,SW,234,0.0,0.0,98,0.00,,---,0.00,VWS V14.01,2013-02-12 09:10:00,
2013-02-12 04:15:00,46.5,46.0,30.07,SW,234,0.0,0.0,98,0.00,,---,0.00,VWS V14.01,2013-02-12 09:15:00,
2013-02-12 04:20:00,46.4,45.9,30.07,SW,234,0.0,0.0,98,0.00,,---,0.00,VWS V14.01,2013-02-12 09:20:00,
2013-02-12 04:25:00,46.2,45.7,30.07,SW,234,0.0,0.0,98,0.00,,---,0.00,VWS V14.01,2013-02-12 09:25:00,
2013-02-12 04:29:00,46.2,45.7,30.08,SW,234,0.0,0.0,98,0.00,,---,0.00,VWS V14.01,2013-02-12 09:29:00,
2013-02-12 04:35:00,46.1,45.6,30.08,SW,234,0.0,0.0,98,0.00,,---,0.00,VWS V14.01,2013-02-12 09:35:00,
2013-02-12 04:40:00,46.0,45.5,30.08,SW,234,0.0,0.0,98,0.00,,---,0.00,VWS V14.01,2013-02-12 09:40:00,
2013-02-12 04:45:00,46.0,45.5,30.07,SW,234,0.0,0.0,98,0.00,,---,0.00,VWS V14.01,2013-02-12 09:45:00,
2013-02-12 04:50:00,45.8,45.3,30.07,SW,234,0.0,0.0,98,0.00,,---,0.00,VWS V14.01,2013-02-12 09:50:00,
2013-02-12 04:55:00,45.8,45.3,30.07,SW,234,0.0,0.0,98,0.00,,---,0.00,VWS V14.01,2013-02-12 09:55:00,
2013-02-12 05:00:00,45.8,45.3,30.08,SW,234,0.0,0.0,98,0.00,,---,0.00,VWS V14.01,2013-02-12 10:00:00,
2013-02-12 05:05:00,45.8,45.3,30.08,SW,234,0.0,0.0,98,0.00,,---,0.00,VWS V14.01,2013-02-12 10:05:00,
2013-02-12 05:10:00,45.7,45.2,30.08,SW,234,0.0,0.0,98,0.00,,---,0.00,VWS V14.01,2013-02-12 10:10:00,
2013-02-12 05:15:00,45.5,45.0,30.09,SW,234,0.0,0.0,98,0.00,,---,0.00,VWS V14.01,2013-02-12 10:15:00,
2013-02-12 05:20:00,45.4,44.9,30.09,SW,234,0.0,0.0,98,0.00,,---,0.00,VWS V14.01,2013-02-12 10:20:00,
2013-02-12 05:25:00,45.4,44.9,30.09,SW,234,0.0,0.0,98,0.00,,---,0.00,VWS V14.01,2013-02-12 10:25:00,
2013-02-12 05:30:00,45.4,44.9,30.10,SW,234,0.0,0.0,98,0.00,,---,0.00,VWS V14.01,2013-02-12 10:30:00,
2013-02-12 05:35:00,45.4,44.9,30.10,SW,234,0.0,0.0,98,0.00,,---,0.00,VWS V14.01,2013-02-12 10:35:00,
2013-02-12 05:40:00,45.4,44.9,30.10,SW,234,0.0,0.0,98,0.00,,---,0.00,VWS V14.01,2013-02-12 10:40:00,
2013-02-12 05:44:00,45.2,44.7,30.10,SW,234,0.0,0.0,98,0.00,,---,0.00,VWS V14.01,2013-02-12 10:44:00,
2013-02-12 05:49:00,45.2,44.7,30.10,SW,234,0.0,0.0,98,0.00,,---,0.00,VWS V14.01,2013-02-12 10:49:00,
2013-02-12 05:55:00,45.1,44.6,30.10,SW,234,0.0,0.0,98,0.00,,---,0.00,VWS V14.01,2013-02-12 10:55:00,
2013-02-12 06:00:00,44.9,44.4,30.10,SW,234,0.0,0.0,98,0.00,,---,0.00,VWS V14.01,2013-02-12 11:00:00,
2013-02-12 06:04:00,44.8,44.3,30.10,SW,234,0.0,0.0,98,0.00,,---,0.00,VWS V14.01,2013-02-12 11:04:00,
2013-02-12 06:09:00,44.6,44.1,30.10,SW,234,0.0,0.0,98,0.00,,---,0.00,VWS V14.01,2013-02-12 11:09:00,
2013-02-12 06:14:00,44.5,44.0,30.11,SW,234,0.0,0.0,98,0.00,,---,0.00,VWS V14.01,2013-02-12 11:14:00,
2013-02-12 06:19:00,44.3,43.8,30.11,SW,234,0.0,0.0,98,0.00,,---,0.00,VWS V14.01,2013-02-12 11:19:00,
2013-02-12 06:24:00,44.1,43.6,30.11,SW,234,0.0,0.0,98,0.00,,---,0.00,VWS V14.01,2013-02-12 11:24:00,
2013-02-12 06:29:00,44.1,43.6,30.11,SW,234,0.0,0.0,98,0.00,,---,0.00,VWS V14.01,2013-02-12 11:29:00,
2013-02-12 06:34:00,43.9,43.4,30.11,SW,234,0.0,0.0,98,0.00,,---,0.00,VWS V14.01,2013-02-12 11:34:00,
2013-02-12 06:39:00,43.8,43.3,30.11,SW,234,0.0,0.0,98,0.00,,---,0.00,VWS V14.01,2013-02-12 11:39:00,
2013-02-12 06:44:00,43.6,43.1,30.12,SW,234,0.0,0.0,98,0.00,,---,0.00,VWS V14.01,2013-02-12 11:44:00,
2013-02-12 06:49:00,43.6,43.1,30.12,SW,234,0.0,0.0,98,0.00,,---,0.00,VWS V14.01,2013-02-12 11:49:00,
2013-02-12 06:54:00,43.5,43.0,30.12,SW,234,0.0,0.0,98,0.00,,---,0.00,VWS V14.01,2013-02-12 11:54:00,
2013-02-12 06:59:00,43.3,42.8,30.13,SW,234,0.0,0.0,98,0.00,,---,0.00,VWS V14.01,2013-02-12 11:59:00,
2013-02-12 07:04:00,43.3,42.8,30.13,SW,234,0.0,0.0,98,0.00,,---,0.00,VWS V14.01,2013-02-12 12:04:00,
2013-02-12 07:09:00,43.2,42.7,30.13,SW,234,0.0,0.0,98,0.00,,---,0.00,VWS V14.01,2013-02-12 12:09:00,
2013-02-12 07:14:00,42.9,42.4,30.13,SW,234,0.0,0.0,98,0.00,,---,0.00,VWS V14.01,2013-02-12 12:14:00,
2013-02-12 07:19:00,42.8,42.3,30.13,SW,234,0.0,0.0,98,0.00,,---,0.00,VWS V14.01,2013-02-12 12:19:00,
2013-02-12 07:24:00,42.6,42.1,30.13,SW,234,0.0,0.0,98,0.00,,---,0.00,VWS V14.01,2013-02-12 12:24:00,
2013-02-12 07:29:00,42.3,41.8,30.13,SW,234,0.0,0.0,98,0.00,,---,0.00,VWS V14.01,2013-02-12 12:29:00,
2013-02-12 07:34:00,42.2,41.7,30.13,SW,234,0.0,0.0,98,0.00,,---,0.00,VWS V14.01,2013-02-12 12:34:00,
2013-02-12 07:39:00,41.9,41.4,30.13,SW,234,0.0,0.0,98,0.00,,---,0.00,VWS V14.01,2013-02-12 12:39:00,
2013-02-12 07:44:00,41.8,41.3,30.13,SW,234,0.0,0.0,98,0.00,,---,0.00,VWS V14.01,2013-02-12 12:44:00,
2013-02-12 07:49:00,41.6,41.1,30.13,SW,234,0.0,0.0,98,0.00,,---,0.00,VWS V14.01,2013-02-12 12:49:00,
2013-02-12 07:54:00,41.5,41.0,30.13,SW,234,0.0,0.0,98,0.00,,---,0.00,VWS V14.01,2013-02-12 12:54:00,
2013-02-12 07:59:00,41.5,41.0,30.15,SW,234,0.0,0.0,98,0.00,,---,0.00,VWS V14.01,2013-02-12 12:59:00,
2013-02-12 08:04:00,41.6,41.1,30.15,SW,234,0.0,0.0,98,0.00,,---,0.00,VWS V14.01,2013-02-12 13:04:00,
2013-02-12 08:09:00,41.6,41.1,30.15,SW,234,0.0,0.0,98,0.00,,---,0.00,VWS V14.01,2013-02-12 13:09:00,
2013-02-12 08:14:00,41.6,41.1,30.14,SW,234,0.0,0.0,98,0.00,,---,0.00,VWS V14.01,2013-02-12 13:14:00,
2013-02-12 08:19:00,41.8,41.3,30.14,SW,234,0.0,0.0,98,0.00,,---,0.00,VWS V14.01,2013-02-12 13:19:00,
2013-02-12 08:24:00,41.9,41.4,30.14,SW,234,0.0,0.0,98,0.00,,---,0.00,VWS V14.01,2013-02-12 13:24:00,
2013-02-12 08:29:00,42.1,41.6,30.16,SW,234,0.0,0.0,98,0.00,,---,0.00,VWS V14.01,2013-02-12 13:29:00,
2013-02-12 08:34:00,42.1,41.6,30.16,SW,234,0.0,0.0,98,0.00,,---,0.00,VWS V14.01,2013-02-12 13:34:00,
2013-02-12 08:39:00,42.3,41.8,30.16,SW,234,0.0,0.0,98,0.00,,---,0.00,VWS V14.01,2013-02-12 13:39:00,
2013-02-12 08:44:00,42.8,42.3,30.17,SW,234,0.0,0.0,98,0.00,,---,0.00,VWS V14.01,2013-02-12 13:44:00,
2013-02-12 08:49:00,43.5,43.0,30.17,SW,234,0.0,0.0,98,0.00,,---,0.00,VWS V14.01,2013-02-12 13:49:00,
2013-02-12 08:54:00,43.9,43.4,30.17,SW,234,0.0,0.0,98,0.00,,---,0.00,VWS V14.01,2013-02-12 13:54:00,
2013-02-12 08:59:00,44.2,43.7,30.17,SW,234,0.0,0.0,98,0.00,,---,0.00,VWS V14.01,2013-02-12 13:59:00,
2013-02-12 09:04:00,43.6,43.1,30.17,SW,234,0.0,0.0,98,0.00,,---,0.00,VWS V14.01,2013-02-12 14:04:00,
2013-02-12 09:09:00,44.5,40.3,30.17,SW,234,0.0,0.0,85,0.00,,---,0.00,VWS V14.01,2013-02-12 14:09:00,
2013-02-12 09:14:00,45.4,36.2,30.18,ENE,66,0.0,0.0,70,0.00,,---,0.00,VWS V14.01,2013-02-12 14:14:00,
2013-02-12 09:19:00,46.7,36.7,30.18,NE,42,0.0,1.0,68,0.00,,---,0.00,VWS V14.01,2013-02-12 14:19:00,
2013-02-12 09:24:00,47.9,34.7,30.18,NNE,27,1.0,3.0,60,0.00,,---,0.00,VWS V14.01,2013-02-12 14:24:00,
2013-02-12 09:29:00,48.8,32.0,30.18,WNW,289,0.0,1.0,52,0.00,,---,0.00,VWS V14.01,2013-02-12 14:29:00,
2013-02-12 09:34:00,49.8,29.9,30.18,SW,231,1.0,1.0,46,0.00,,---,0.00,VWS V14.01,2013-02-12 14:34:00,
2013-02-12 09:39:00,50.2,32.8,30.18,NE,38,0.0,1.0,51,0.00,,---,0.00,VWS V14.01,2013-02-12 14:39:00,
2013-02-12 09:44:00,50.5,34.0,30.18,NE,37,0.0,1.0,53,0.00,,---,0.00,VWS V14.01,2013-02-12 14:44:00,
2013-02-12 09:49:00,51.0,32.5,30.18,NE,37,0.0,0.0,49,0.00,,---,0.00,VWS V14.01,2013-02-12 14:49:00,
2013-02-12 09:54:00,51.3,30.1,30.18,NE,55,0.0,2.0,44,0.00,,---,0.00,VWS V14.01,2013-02-12 14:54:00,
2013-02-12 09:59:00,51.3,31.8,30.18,NE,55,0.0,0.0,47,0.00,,---,0.00,VWS V14.01,2013-02-12 14:59:00,
2013-02-12 10:04:00,51.3,29.6,30.18,ENE,59,0.0,1.0,43,0.00,,---,0.00,VWS V14.01,2013-02-12 15:04:00,
2013-02-12 10:09:00,51.6,27.5,30.18,NNE,28,0.0,5.0,39,0.00,,---,0.00,VWS V14.01,2013-02-12 15:09:00,
2013-02-12 10:14:00,51.9,27.7,30.18,NNE,31,0.0,1.0,39,0.00,,---,0.00,VWS V14.01,2013-02-12 15:14:00,
2013-02-12 10:19:00,52.2,28.6,30.18,NNE,31,0.0,1.0,40,0.00,,---,0.00,VWS V14.01,2013-02-12 15:19:00,
2013-02-12 10:24:00,52.5,30.7,30.18,ENE,58,0.0,1.0,43,0.00,,---,0.00,VWS V14.01,2013-02-12 15:24:00,
2013-02-12 10:29:00,52.8,30.9,30.17,NE,54,0.0,1.0,43,0.00,,---,0.00,VWS V14.01,2013-02-12 15:29:00,
2013-02-12 10:34:00,53.1,28.8,30.17,NNE,27,0.0,2.0,39,0.00,,---,0.00,VWS V14.01,2013-02-12 15:34:00,
2013-02-12 10:39:00,53.2,27.6,30.17,NNE,27,0.0,1.0,37,0.00,,---,0.00,VWS V14.01,2013-02-12 15:39:00,
2013-02-12 10:44:00,53.6,28.6,30.18,NW,313,0.0,1.0,38,0.00,,---,0.00,VWS V14.01,2013-02-12 15:44:00,
2013-02-12 10:49:00,53.9,28.2,30.18,WSW,243,0.0,1.0,37,0.00,,---,0.00,VWS V14.01,2013-02-12 15:49:00,
2013-02-12 10:54:00,53.9,24.7,30.18,NNE,32,0.0,3.0,32,0.00,,---,0.00,VWS V14.01,2013-02-12 15:54:00,
2013-02-12 10:59:00,54.1,27.8,30.17,NNW,333,0.0,1.0,36,0.00,,---,0.00,VWS V14.01,2013-02-12 15:59:00,
2013-02-12 11:04:00,54.5,26.7,30.17,North,3,0.0,1.0,34,0.00,,---,0.00,VWS V14.01,2013-02-12 16:04:00,
2013-02-12 11:09:00,55.1,25.8,30.17,NNE,17,0.0,1.0,32,0.00,,---,0.00,VWS V14.01,2013-02-12 16:09:00,
2013-02-12 11:14:00,55.6,23.9,30.15,NNE,30,6.0,7.0,29,0.00,,---,0.00,VWS V14.01,2013-02-12 16:14:00,
2013-02-12 11:19:00,55.9,27.2,30.15,NE,51,0.0,1.0,33,0.00,,---,0.00,VWS V14.01,2013-02-12 16:19:00,
2013-02-12 11:24:00,56.6,24.7,30.15,NNE,27,0.0,3.0,29,0.00,,---,0.00,VWS V14.01,2013-02-12 16:24:00,
2013-02-12 11:29:00,56.9,25.0,30.15,NNE,18,2.0,3.0,29,0.00,,---,0.00,VWS V14.01,2013-02-12 16:29:00,
2013-02-12 11:34:00,57.2,28.4,30.15,NNE,30,2.0,3.0,33,0.00,,---,0.00,VWS V14.01,2013-02-12 16:34:00,
2013-02-12 11:39:00,58.3,23.6,30.15,NNE,30,0.0,0.0,26,0.00,,---,0.00,VWS V14.01,2013-02-12 16:39:00,
2013-02-12 11:44:00,58.9,24.1,30.14,South,169,1.0,3.0,26,0.00,,---,0.00,VWS V14.01,2013-02-12 16:44:00,
2013-02-12 11:49:00,58.9,24.1,30.14,SW,230,0.0,1.0,26,0.00,,---,0.00,VWS V14.01,2013-02-12 16:49:00,
2013-02-12 11:54:00,58.9,25.9,30.14,NNE,13,2.0,4.0,28,0.00,,---,0.00,VWS V14.01,2013-02-12 16:54:00,
2013-02-12 11:59:00,59.3,24.4,30.13,NNE,17,0.0,2.0,26,0.00,,---,0.00,VWS V14.01,2013-02-12 16:59:00,
2013-02-12 12:04:00,59.6,21.8,30.13,South,183,1.0,3.0,23,0.00,,---,0.00,VWS V14.01,2013-02-12 17:04:00,
2013-02-12 12:09:00,60.1,24.2,30.13,NE,39,0.0,4.0,25,0.00,,---,0.00,VWS V14.01,2013-02-12 17:09:00,
2013-02-12 12:14:00,59.8,23.0,30.14,South,182,0.0,5.0,24,0.00,,---,0.00,VWS V14.01,2013-02-12 17:14:00,
2013-02-12 12:19:00,60.2,27.9,30.14,NNE,17,0.0,0.0,29,0.00,,---,0.00,VWS V14.01,2013-02-12 17:19:00,
2013-02-12 12:24:00,59.8,24.9,30.14,South,182,0.0,1.0,26,0.00,,---,0.00,VWS V14.01,2013-02-12 17:24:00,
2013-02-12 12:29:00,59.9,25.0,30.12,East,80,0.0,1.0,26,0.00,,---,0.00,VWS V14.01,2013-02-12 17:29:00,
2013-02-12 12:34:00,59.9,21.0,30.12,SE,126,0.0,0.0,22,0.00,,---,0.00,VWS V14.01,2013-02-12 17:34:00,
2013-02-12 12:39:00,59.9,23.0,30.12,NE,48,0.0,2.0,24,0.00,,---,0.00,VWS V14.01,2013-02-12 17:39:00,
2013-02-12 12:44:00,60.2,23.3,30.11,WSW,248,0.0,2.0,24,0.00,,---,0.00,VWS V14.01,2013-02-12 17:44:00,
2013-02-12 12:49:00,60.4,24.4,30.11,SW,231,0.0,1.0,25,0.00,,---,0.00,VWS V14.01,2013-02-12 17:49:00,
2013-02-12 12:54:00,60.1,22.2,30.11,South,175,0.0,2.0,23,0.00,,---,0.00,VWS V14.01,2013-02-12 17:54:00,
2013-02-12 12:59:00,59.9,23.0,30.09,WSW,246,0.0,1.0,24,0.00,,---,0.00,VWS V14.01,2013-02-12 17:59:00,
2013-02-12 13:04:00,59.8,24.9,30.09,NE,34,1.0,1.0,26,0.00,,---,0.00,VWS V14.01,2013-02-12 18:04:00,
2013-02-12 13:09:00,59.9,22.0,30.09,NE,34,0.0,0.0,23,0.00,,---,0.00,VWS V14.01,2013-02-12 18:09:00,
2013-02-12 13:14:00,59.8,23.9,30.09,South,178,0.0,2.0,25,0.00,,---,0.00,VWS V14.01,2013-02-12 18:14:00,
2013-02-12 13:19:00,59.8,28.3,30.09,South,178,0.0,0.0,30,0.00,,---,0.00,VWS V14.01,2013-02-12 18:19:00,
2013-02-12 13:24:00,60.2,23.3,30.09,South,178,0.0,0.0,24,0.00,,---,0.00,VWS V14.01,2013-02-12 18:24:00,
2013-02-12 13:29:00,60.4,22.5,30.08,WNW,289,0.0,0.0,23,0.00,,---,0.00,VWS V14.01,2013-02-12 18:29:00,
2013-02-12 13:34:00,60.1,26.0,30.08,NNE,30,0.0,1.0,27,0.00,,---,0.00,VWS V14.01,2013-02-12 18:34:00,
2013-02-12 13:39:00,59.8,23.0,30.08,ENE,61,0.0,2.0,24,0.00,,---,0.00,VWS V14.01,2013-02-12 18:39:00,
2013-02-12 13:44:00,59.9,21.0,30.08,ENE,61,0.0,0.0,22,0.00,,---,0.00,VWS V14.01,2013-02-12 18:44:00,
2013-02-12 13:49:00,60.1,24.2,30.08,NW,309,0.0,1.0,25,0.00,,---,0.00,VWS V14.01,2013-02-12 18:49:00,
2013-02-12 13:54:00,60.1,17.7,30.08,NNE,17,0.0,1.0,19,0.00,,---,0.00,VWS V14.01,2013-02-12 18:54:00,
2013-02-12 13:59:00,60.1,21.1,30.09,SSE,151,0.0,1.0,22,0.00,,---,0.00,VWS V14.01,2013-02-12 18:59:00,
2013-02-12 14:04:00,60.4,23.5,30.09,SSE,151,0.0,0.0,24,0.00,,---,0.00,VWS V14.01,2013-02-12 19:04:00,
2013-02-12 14:09:00,60.5,18.1,30.09,SSE,167,0.0,2.0,19,0.00,,---,0.00,VWS V14.01,2013-02-12 19:09:00,
2013-02-12 14:14:00,60.5,24.5,30.08,ENE,75,0.0,0.0,25,0.00,,---,0.00,VWS V14.01,2013-02-12 19:14:00,
2013-02-12 14:19:00,60.7,20.6,30.08,SSW,212,0.0,0.0,21,0.00,,---,0.00,VWS V14.01,2013-02-12 19:19:00,
2013-02-12 14:24:00,60.9,15.8,30.08,NW,320,0.0,2.0,17,0.00,,---,0.00,VWS V14.01,2013-02-12 19:24:00,
2013-02-12 14:29:00,60.9,18.4,30.08,NW,320,0.0,1.0,19,0.00,,---,0.00,VWS V14.01,2013-02-12 19:29:00,
2013-02-12 14:34:00,60.9,21.8,30.08,SW,233,0.0,1.0,22,0.00,,---,0.00,VWS V14.01,2013-02-12 19:34:00,
2013-02-12 14:39:00,60.9,17.1,30.08,SSE,159,1.0,1.0,18,0.00,,---,0.00,VWS V14.01,2013-02-12 19:39:00,
2013-02-12 14:44:00,60.7,18.2,30.08,SSE,167,0.0,1.0,19,0.00,,---,0.00,VWS V14.01,2013-02-12 19:44:00,
2013-02-12 14:49:00,60.7,14.3,30.08,WSW,251,0.0,1.0,16,0.00,,---,0.00,VWS V14.01,2013-02-12 19:49:00,
2013-02-12 14:54:00,61.0,14.5,30.08,SSE,164,0.0,3.0,16,0.00,,---,0.00,VWS V14.01,2013-02-12 19:54:00,
2013-02-12 14:59:00,61.0,18.5,30.08,South,169,0.0,2.0,19,0.00,,---,0.00,VWS V14.01,2013-02-12 19:59:00,
2013-02-12 15:04:00,60.9,21.8,30.08,NE,44,0.0,0.0,22,0.00,,---,0.00,VWS V14.01,2013-02-12 20:04:00,
2013-02-12 15:09:00,61.0,19.7,30.08,NNE,31,0.0,2.0,20,0.00,,---,0.00,VWS V14.01,2013-02-12 20:09:00,
2013-02-12 15:14:00,61.0,23.0,30.07,NNE,31,0.0,1.0,23,0.00,,---,0.00,VWS V14.01,2013-02-12 20:14:00,
2013-02-12 15:19:00,60.7,14.3,30.07,NE,56,0.0,3.0,16,0.00,,---,0.00,VWS V14.01,2013-02-12 20:19:00,
2013-02-12 15:24:00,60.9,18.4,30.07,NE,56,0.0,0.0,19,0.00,,---,0.00,VWS V14.01,2013-02-12 20:24:00,
2013-02-12 15:29:00,60.7,19.4,30.06,NE,56,0.0,1.0,20,0.00,,---,0.00,VWS V14.01,2013-02-12 20:29:00,
2013-02-12 15:34:00,60.5,14.1,30.06,SE,124,0.0,1.0,16,0.00,,---,0.00,VWS V14.01,2013-02-12 20:34:00,
2013-02-12 15:39:00,60.5,19.2,30.06,SE,124,0.0,0.0,20,0.00,,---,0.00,VWS V14.01,2013-02-12 20:39:00,
2013-02-12 15:44:00,60.4,18.0,30.06,East,92,0.0,1.0,19,0.00,,---,0.00,VWS V14.01,2013-02-12 20:44:00,
2013-02-12 15:49:00,60.4,19.2,30.06,East,92,0.0,0.0,20,0.00,,---,0.00,VWS V14.01,2013-02-12 20:49:00,
2013-02-12 15:54:00,60.2,21.2,30.06,East,92,0.0,0.0,22,0.00,,---,0.00,VWS V14.01,2013-02-12 20:54:00,
2013-02-12 15:59:00,60.2,22.3,30.07,East,92,0.0,0.0,23,0.00,,---,0.00,VWS V14.01,2013-02-12 20:59:00,
2013-02-12 16:04:00,60.1,18.9,30.07,East,92,0.0,0.0,20,0.00,,---,0.00,VWS V14.01,2013-02-12 21:04:00,
2013-02-12 16:09:00,59.9,19.9,30.07,East,92,0.0,0.0,21,0.00,,---,0.00,VWS V14.01,2013-02-12 21:09:00,
2013-02-12 16:14:00,59.9,21.0,30.07,East,92,0.0,0.0,22,0.00,,---,0.00,VWS V14.01,2013-02-12 21:14:00,
2013-02-12 16:19:00,59.8,20.9,30.07,East,92,0.0,0.0,22,0.00,,---,0.00,VWS V14.01,2013-02-12 21:19:00,
2013-02-12 16:24:00,59.6,29.0,30.07,East,92,0.0,0.0,31,0.00,,---,0.00,VWS V14.01,2013-02-12 21:24:00,
2013-02-12 16:29:00,59.5,23.7,30.07,NE,34,0.0,0.0,25,0.00,,---,0.00,VWS V14.01,2013-02-12 21:29:00,
2013-02-12 16:34:00,59.3,23.5,30.07,NE,34,0.0,0.0,25,0.00,,---,0.00,VWS V14.01,2013-02-12 21:34:00,
2013-02-12 16:39:00,59.3,21.5,30.07,NE,34,0.0,0.0,23,0.00,,---,0.00,VWS V14.01,2013-02-12 21:39:00,
2013-02-12 16:44:00,59.2,27.0,30.07,NE,34,0.0,0.0,29,0.00,,---,0.00,VWS V14.01,2013-02-12 21:44:00,
2013-02-12 16:49:00,58.9,24.1,30.07,NE,34,0.0,0.0,26,0.00,,---,0.00,VWS V14.01,2013-02-12 21:49:00,
2013-02-12 16:54:00,58.7,27.4,30.07,NE,34,0.0,0.0,30,0.00,,---,0.00,VWS V14.01,2013-02-12 21:54:00,
2013-02-12 16:59:00,58.4,27.9,30.07,NE,34,0.0,0.0,31,0.00,,---,0.00,VWS V14.01,2013-02-12 21:59:00,
2013-02-12 17:04:00,58.3,27.8,30.07,NE,34,0.0,0.0,31,0.00,,---,0.00,VWS V14.01,2013-02-12 22:04:00,
2013-02-12 17:09:00,58.0,31.2,30.07,NE,34,0.0,0.0,36,0.00,,---,0.00,VWS V14.01,2013-02-12 22:09:00,
2013-02-12 17:14:00,57.6,29.5,30.07,NE,34,0.0,0.0,34,0.00,,---,0.00,VWS V14.01,2013-02-12 22:14:00,
2013-02-12 17:19:00,57.5,30.1,30.07,NE,34,0.0,0.0,35,0.00,,---,0.00,VWS V14.01,2013-02-12 22:19:00,
2013-02-12 17:24:00,57.2,29.1,30.07,NE,34,0.0,0.0,34,0.00,,---,0.00,VWS V14.01,2013-02-12 22:24:00,
2013-02-12 17:29:00,57.0,29.6,30.07,NE,34,0.0,0.0,35,0.00,,---,0.00,VWS V14.01,2013-02-12 22:29:00,
2013-02-12 17:34:00,56.7,27.2,30.06,NE,34,0.0,0.0,32,0.00,,---,0.00,VWS V14.01,2013-02-12 22:34:00,
2013-02-12 17:39:00,56.6,28.6,30.06,NE,34,0.0,0.0,34,0.00,,---,0.00,VWS V14.01,2013-02-12 22:39:00,
2013-02-12 17:44:00,56.3,30.4,30.06,NE,34,0.0,0.0,37,0.00,,---,0.00,VWS V14.01,2013-02-12 22:44:00,
2013-02-12 17:49:00,56.2,29.6,30.05,NE,34,0.0,0.0,36,0.00,,---,0.00,VWS V14.01,2013-02-12 22:49:00,
2013-02-12 17:54:00,56.0,30.1,30.05,NE,34,0.0,0.0,37,0.00,,---,0.00,VWS V14.01,2013-02-12 22:54:00,
2013-02-12 17:59:00,55.7,37.4,30.05,NE,34,0.0,0.0,50,0.00,,---,0.00,VWS V14.01,2013-02-12 22:59:00,
2013-02-12 18:04:00,55.6,34.0,30.06,NE,34,0.0,0.0,44,0.00,,---,0.00,VWS V14.01,2013-02-12 23:04:00,
2013-02-12 18:09:00,55.3,34.3,30.06,NE,34,0.0,0.0,45,0.00,,---,0.00,VWS V14.01,2013-02-12 23:09:00,
2013-02-12 18:14:00,55.0,32.9,30.06,NE,34,0.0,0.0,43,0.00,,---,0.00,VWS V14.01,2013-02-12 23:14:00,
2013-02-12 18:19:00,54.8,34.4,30.05,NE,34,0.0,0.0,46,0.00,,---,0.00,VWS V14.01,2013-02-12 23:19:00,
2013-02-12 18:24:00,54.5,34.2,30.05,NE,34,0.0,0.0,46,0.00,,---,0.00,VWS V14.01,2013-02-12 23:24:00,
2013-02-12 18:29:00,54.2,34.4,30.05,NE,34,0.0,0.0,47,0.00,,---,0.00,VWS V14.01,2013-02-12 23:29:00,
2013-02-12 18:34:00,54.1,34.3,30.05,NE,34,0.0,0.0,47,0.00,,---,0.00,VWS V14.01,2013-02-12 23:34:00,
2013-02-12 18:39:00,53.9,38.1,30.05,NE,34,0.0,0.0,55,0.00,,---,0.00,VWS V14.01,2013-02-12 23:39:00,
2013-02-12 18:44:00,53.6,37.8,30.05,NE,34,0.0,0.0,55,0.00,,---,0.00,VWS V14.01,2013-02-12 23:44:00,
2013-02-12 18:49:00,53.5,37.8,30.04,NE,34,0.0,0.0,55,0.00,,---,0.00,VWS V14.01,2013-02-12 23:49:00,
2013-02-12 18:54:00,53.3,38.0,30.04,NE,34,0.0,0.0,56,0.00,,---,0.00,VWS V14.01,2013-02-12 23:54:00,
2013-02-12 18:59:00,53.2,40.1,30.04,NE,34,0.0,0.0,61,0.00,,---,0.00,VWS V14.01,2013-02-12 23:59:00,
2013-02-12 19:04:00,52.9,38.5,30.03,NE,34,0.0,0.0,58,0.00,,---,0.00,VWS V14.01,2013-02-13 00:04:00,
2013-02-12 19:09:00,52.8,38.9,30.03,NE,34,0.0,0.0,59,0.00,,---,0.00,VWS V14.01,2013-02-13 00:09:00,
2013-02-12 19:14:00,52.6,39.1,30.03,NE,34,0.0,0.0,60,0.00,,---,0.00,VWS V14.01,2013-02-13 00:14:00,
2013-02-12 19:19:00,52.3,40.1,30.01,NE,34,0.0,0.0,63,0.00,,---,0.00,VWS V14.01,2013-02-13 00:19:00,
2013-02-12 19:24:00,52.2,40.0,30.01,NE,34,0.0,0.0,63,0.00,,---,0.00,VWS V14.01,2013-02-13 00:24:00,
2013-02-12 19:29:00,52.2,40.4,30.01,NE,34,0.0,0.0,64,0.00,,---,0.00,VWS V14.01,2013-02-13 00:29:00,
2013-02-12 19:34:00,52.0,40.2,30.00,NE,34,0.0,0.0,64,0.00,,---,0.00,VWS V14.01,2013-02-13 00:34:00,
2013-02-12 19:39:00,52.0,39.0,30.00,NE,34,0.0,0.0,61,0.00,,---,0.00,VWS V14.01,2013-02-13 00:39:00,
2013-02-12 19:44:00,52.0,42.5,30.00,NE,34,0.0,0.0,70,0.00,,---,0.00,VWS V14.01,2013-02-13 00:44:00,
2013-02-12 19:49:00,52.0,42.5,30.04,NE,34,0.0,0.0,70,0.00,,---,0.00,VWS V14.01,2013-02-13 00:49:00,
2013-02-12 19:54:00,51.9,39.7,30.04,NE,34,0.0,0.0,63,0.00,,---,0.00,VWS V14.01,2013-02-13 00:54:00,
2013-02-12 19:59:00,52.0,38.6,30.04,NE,34,0.0,0.0,60,0.00,,---,0.00,VWS V14.01,2013-02-13 00:59:00,
2013-02-12 20:04:00,52.0,39.0,30.07,NE,34,0.0,0.0,61,0.00,,---,0.00,VWS V14.01,2013-02-13 01:04:00,
2013-02-12 20:09:00,52.0,40.6,30.07,NE,34,0.0,0.0,65,0.00,,---,0.00,VWS V14.01,2013-02-13 01:09:00,
2013-02-12 20:14:00,51.9,38.9,30.07,NE,34,0.0,0.0,61,0.00,,---,0.00,VWS V14.01,2013-02-13 01:14:00,
2013-02-12 20:19:00,51.9,40.1,30.06,NE,34,0.0,0.0,64,0.00,,---,0.00,VWS V14.01,2013-02-13 01:19:00,
2013-02-12 20:24:00,51.7,38.7,30.06,NE,34,0.0,0.0,61,0.00,,---,0.00,VWS V14.01,2013-02-13 01:24:00,
2013-02-12 20:29:00,51.7,37.8,30.06,NE,34,0.0,0.0,59,0.00,,---,0.00,VWS V14.01,2013-02-13 01:29:00,
2013-02-12 20:34:00,51.6,40.2,30.06,NE,34,0.0,0.0,65,0.00,,---,0.00,VWS V14.01,2013-02-13 01:34:00,
2013-02-12 20:39:00,51.4,40.0,30.06,NE,34,0.0,0.0,65,0.00,,---,0.00,VWS V14.01,2013-02-13 01:39:00,
2013-02-12 20:44:00,51.4,38.8,30.06,NE,34,0.0,0.0,62,0.00,,---,0.00,VWS V14.01,2013-02-13 01:44:00,
2013-02-12 20:49:00,51.3,42.2,30.06,NE,34,0.0,0.0,71,0.00,,---,0.00,VWS V14.01,2013-02-13 01:49:00,
2013-02-12 20:54:00,51.1,40.5,30.06,NE,34,0.0,0.0,67,0.00,,---,0.00,VWS V14.01,2013-02-13 01:54:00,
2013-02-12 20:59:00,51.0,40.8,30.06,NE,34,0.0,0.0,68,0.00,,---,0.00,VWS V14.01,2013-02-13 01:59:00,
2013-02-12 21:04:00,50.8,39.9,30.07,NE,34,0.0,0.0,66,0.00,,---,0.00,VWS V14.01,2013-02-13 02:04:00,
2013-02-12 21:09:00,50.8,40.2,30.07,NE,34,0.0,0.0,67,0.00,,---,0.00,VWS V14.01,2013-02-13 02:09:00,
2013-02-12 21:14:00,50.8,39.5,30.07,NE,34,0.0,0.0,65,0.00,,---,0.00,VWS V14.01,2013-02-13 02:14:00,
2013-02-12 21:19:00,50.7,39.4,30.07,NE,34,0.0,0.0,65,0.00,,---,0.00,VWS V14.01,2013-02-13 02:19:00,
2013-02-12 21:24:00,50.7,40.9,30.07,NE,34,0.0,0.0,69,0.00,,---,0.00,VWS V14.01,2013-02-13 02:24:00,
2013-02-12 21:29:00,50.5,41.1,30.07,NE,34,0.0,0.0,70,0.00,,---,0.00,VWS V14.01,2013-02-13 02:29:00,
2013-02-12 21:34:00,50.4,42.8,30.06,NE,34,0.0,0.0,75,0.00,,---,0.00,VWS V14.01,2013-02-13 02:34:00,
2013-02-12 21:39:00,50.1,42.8,30.06,NE,34,0.0,0.0,76,0.00,,---,0.00,VWS V14.01,2013-02-13 02:39:00,
2013-02-12 21:44:00,49.9,44.3,30.06,NE,34,0.0,0.0,81,0.00,,---,0.00,VWS V14.01,2013-02-13 02:44:00,
2013-02-12 21:49:00,49.6,44.7,30.07,NE,34,0.0,0.0,83,0.00,,---,0.00,VWS V14.01,2013-02-13 02:49:00,
2013-02-12 21:54:00,49.5,44.2,30.07,NE,34,0.0,0.0,82,0.00,,---,0.00,VWS V14.01,2013-02-13 02:54:00,
2013-02-12 21:59:00,49.5,44.9,30.07,NE,34,0.0,0.0,84,0.00,,---,0.00,VWS V14.01,2013-02-13 02:59:00,
2013-02-12 22:04:00,49.2,47.8,30.06,NE,34,0.0,0.0,95,0.00,,---,0.00,VWS V14.01,2013-02-13 03:04:00,
2013-02-12 22:09:00,48.8,48.0,30.06,NE,34,0.0,0.0,97,0.00,,---,0.00,VWS V14.01,2013-02-13 03:09:00,
2013-02-12 22:14:00,48.5,47.7,30.06,NE,34,0.0,0.0,97,0.00,,---,0.00,VWS V14.01,2013-02-13 03:14:00,
2013-02-12 22:19:00,48.5,48.0,30.07,NE,34,0.0,0.0,98,0.00,,---,0.00,VWS V14.01,2013-02-13 03:19:00,
2013-02-12 22:24:00,48.3,47.8,30.07,NE,34,0.0,0.0,98,0.00,,---,0.00,VWS V14.01,2013-02-13 03:24:00,
2013-02-12 22:29:00,48.2,47.7,30.07,NE,34,0.0,0.0,98,0.00,,---,0.00,VWS V14.01,2013-02-13 03:29:00,
2013-02-12 22:34:00,48.0,47.5,30.06,NE,34,0.0,0.0,98,0.00,,---,0.00,VWS V14.01,2013-02-13 03:34:00,
2013-02-12 22:39:00,47.9,47.4,30.06,NE,34,0.0,0.0,98,0.00,,---,0.00,VWS V14.01,2013-02-13 03:39:00,
2013-02-12 22:44:00,47.7,47.2,30.06,NE,34,0.0,0.0,98,0.00,,---,0.00,VWS V14.01,2013-02-13 03:44:00,
2013-02-12 22:49:00,47.6,47.1,30.05,NE,34,0.0,0.0,98,0.00,,---,0.00,VWS V14.01,2013-02-13 03:49:00,
2013-02-12 22:54:00,47.4,46.9,30.05,NE,34,0.0,0.0,98,0.00,,---,0.00,VWS V14.01,2013-02-13 03:54:00,
2013-02-12 22:59:00,47.4,46.9,30.05,NE,34,0.0,0.0,98,0.00,,---,0.00,VWS V14.01,2013-02-13 03:59:00,
2013-02-12 23:04:00,47.3,46.8,30.06,NE,34,0.0,0.0,98,0.00,,---,0.00,VWS V14.01,2013-02-13 04:04:00,
2013-02-12 23:09:00,47.3,46.8,30.06,NE,34,0.0,0.0,98,0.00,,---,0.00,VWS V14.01,2013-02-13 04:09:00,
2013-02-12 23:14:00,47.1,46.6,30.06,NE,34,0.0,0.0,98,0.00,,---,0.00,VWS V14.01,2013-02-13 04:14:00,
2013-02-12 23:19:00,47.1,46.6,30.02,NE,34,0.0,0.0,98,0.00,,---,0.00,VWS V14.01,2013-02-13 04:19:00,
2013-02-12 23:24:00,47.1,46.6,30.02,NE,34,0.0,0.0,98,0.00,,---,0.00,VWS V14.01,2013-02-13 04:24:00,
2013-02-12 23:29:00,47.1,46.6,30.02,NE,34,0.0,0.0,98,0.00,,---,0.00,VWS V14.01,2013-02-13 04:29:00,
2013-02-12 23:34:00,47.1,46.6,30.04,NE,34,0.0,0.0,98,0.00,,---,0.00,VWS V14.01,2013-02-13 04:34:00,
2013-02-12 23:39:00,47.0,46.5,30.04,NE,34,0.0,0.0,98,0.00,,---,0.00,VWS V14.01,2013-02-13 04:39:00,
2013-02-12 23:44:00,47.0,46.5,30.04,NE,34,0.0,0.0,98,0.00,,---,0.00,VWS V14.01,2013-02-13 04:44:00,
2013-02-12 23:49:00,47.0,46.5,30.02,NE,34,0.0,0.0,98,0.00,,---,0.00,VWS V14.01,2013-02-13 04:49:00,
2013-02-12 23:54:00,47.0,46.5,30.02,NE,34,0.0,0.0,98,0.00,,---,0.00,VWS V14.01,2013-02-13 04:54:00,
2013-02-12 23:59:00,47.0,46.5,30.02,NE,34,0.0,0.0,98,0.00,,---,0.00,VWS V14.01,2013-02-13 04:59:00,